Flight Track Log - Related Links

Times and Time Zones

All times are in EST time to prevent confusion due to time zone crossing. See the DAL1935 flight status page for this flight to view local times or setup timezone preferences in your user account.

Time Position Orientation Groundspeed Altitude Reporting Facility
EST Latitude Longitude Course Direction KTS MPH feet Rate Location/Type
Sun 04:12:33 PM 40.8333 -73.9167 227° Southwest 224 258 4,000  Level New York TRACON
Sun 04:13:33 PM 40.8833 -73.9667 323° Northwest 233 268 7,900 3,750 Climbing New York TRACON
Sun 04:14:00 PM 40.4588 -74.1312 242° Southwest  Level Estimated
Sun 04:14:33 PM 40.8500 -74.0500 242° Southwest 238 274 11,500  Level New York TRACON
Sun 04:15:00 PM 40.3525 -74.2169 252° West  Level Estimated
Sun 04:15:27 PM 40.8167 -74.1333 242° Southwest 290 334 12,900  Level New York TRACON
Sun 04:16:00 PM 40.2462 -74.3023 246° West  Level Estimated
Sun 04:16:27 PM 40.7833 -74.2333 246° West 361 415 14,700  Level New York TRACON
Sun 04:17:00 PM 40.1398 -74.3874 227° Southwest  Level Estimated
Sun 04:17:27 PM 40.7333 -74.3500 241° Southwest 386 444 16,200  Level New York TRACON
Sun 04:19:13 PM 40.6278 -74.5636 237° Southwest 397 457 17,100 1,229 Climbing New York Center
Sun 04:20:13 PM 40.5675 -74.6833 236° Southwest 397 457 19,600 2,300 Climbing New York Center
Sun 04:21:13 PM 40.5028 -74.8106 236° Southwest 403 464 21,700 1,850 Climbing New York Center
Sun 04:22:13 PM 40.4381 -74.9375 236° Southwest 417 480 23,300 2,000 Climbing New York Center
Sun 04:23:13 PM 40.3586 -75.0636 230° Southwest 437 503 25,700 2,100 Climbing New York Center
Sun 04:24:13 PM 40.2750 -75.1781 226° Southwest 447 514 27,500 1,750 Climbing New York Center
Sun 04:25:13 PM 40.1892 -75.3003 227° Southwest 453 521 29,200 1,350 Climbing New York Center
Sun 04:26:13 PM 40.1053 -75.4169 227° Southwest 453 521 30,200 1,250 Climbing New York Center
Sun 04:27:13 PM 40.0172 -75.5358 226° Southwest 453 521 31,700 900 Climbing New York Center
Sun 04:28:13 PM 39.9375 -75.6522 228° Southwest 453 521 32,000 150 Climbing New York Center
Sun 04:29:13 PM 39.8617 -75.7686 230° Southwest 440 506 32,000  Level New York Center
Sun 04:30:13 PM 39.7919 -75.8881 233° Southwest 430 495 32,000  Level New York Center
Sun 04:31:13 PM 39.7181 -76.0042 230° Southwest 430 495 32,000  Level New York Center
Sun 04:32:13 PM 39.6439 -76.1200 230° Southwest 430 495 32,000  Level New York Center
Sun 04:33:13 PM 39.5747 -76.2197 228° Southwest 430 495 32,000  Level New York Center
Sun 04:34:37 PM 39.4694 -76.3844 230° Southwest 406 467 32,000  Level Washington Center
Sun 04:35:37 PM 39.3956 -76.5019 231° Southwest 406 467 32,000  Level Washington Center
Sun 04:36:35 PM 39.3261 -76.6003 228° Southwest 411 473 32,000  Level Washington Center
Sun 04:37:35 PM 39.2542 -76.7147 231° Southwest 416 479 32,000  Level Washington Center
Sun 04:38:36 PM 39.1800 -76.8314 231° Southwest 421 484 32,000  Level Washington Center
Sun 04:39:37 PM 39.1081 -76.9478 231° Southwest 421 484 32,000  Level Washington Center
Sun 04:40:35 PM 39.0317 -77.0586 228° Southwest 421 484 32,000  Level Washington Center
Sun 04:41:35 PM 38.9408 -77.1528 219° Southwest 421 484 32,000  Level Washington Center
Sun 04:42:35 PM 38.8519 -77.2522 221° Southwest 426 490 32,000  Level Washington Center
Sun 04:43:36 PM 38.7544 -77.3592 221° Southwest 426 490 32,000  Level Washington Center
Sun 04:44:36 PM 38.6656 -77.4556 220° Southwest 426 490 32,000  Level Washington Center
Sun 04:45:35 PM 38.5742 -77.5542 220° Southwest 431 496 32,000  Level Washington Center
Sun 04:46:35 PM 38.4850 -77.6525 221° Southwest 436 502 32,000  Level Washington Center
Sun 04:47:35 PM 38.3958 -77.7481 220° Southwest 436 502 32,000  Level Washington Center
Sun 04:48:36 PM 38.3044 -77.8461 220° Southwest 436 502 32,000  Level Washington Center
Sun 04:49:36 PM 38.2150 -77.9439 221° Southwest 436 502 32,000  Level Washington Center
Sun 04:50:37 PM 38.1233 -78.0411 220° Southwest 436 502 32,000  Level Washington Center
Sun 04:51:35 PM 38.0317 -78.1331 218° Southwest 436 502 32,000  Level Washington Center
Sun 04:52:36 PM 37.9442 -78.2250 220° Southwest 431 496 32,000  Level Washington Center
Sun 04:53:37 PM 37.8461 -78.3161 216° Southwest 431 496 32,000  Level Washington Center
Sun 04:54:37 PM 37.7503 -78.4047 216° Southwest 431 496 32,000  Level Washington Center
Sun 04:55:36 PM 37.6542 -78.4956 217° Southwest 436 502 32,000  Level Washington Center
Sun 04:56:37 PM 37.5647 -78.5786 216° Southwest 441 507 32,000  Level Washington Center
Sun 04:57:35 PM 37.4706 -78.6692 217° Southwest 441 507 32,000  Level Washington Center
Sun 04:58:36 PM 37.3744 -78.7592 217° Southwest 441 507 32,000  Level Washington Center
Sun 04:59:36 PM 37.2781 -78.8467 216° Southwest 441 507 32,000  Level Washington Center
Sun 05:00:37 PM 37.1797 -78.9364 216° Southwest 441 507 32,000  Level Washington Center
Sun 05:01:37 PM 37.0833 -79.0258 217° Southwest 441 507 32,000  Level Washington Center
Sun 05:02:35 PM 36.9781 -79.1278 218° Southwest 441 507 32,000  Level Washington Center
Sun 05:03:35 PM 36.8794 -79.2142 215° Southwest 441 507 32,000  Level Washington Center
Sun 05:04:36 PM 36.7808 -79.3056 217° Southwest 441 507 32,000  Level Washington Center
Sun 05:05:36 PM 36.6842 -79.3942 216° Southwest 441 507 32,000  Level Washington Center
Sun 05:06:37 PM 36.5872 -79.4825 216° Southwest 441 507 32,000  Level Washington Center
Sun 05:07:37 PM 36.4992 -79.5633 216° Southwest 441 507 32,000  Level Washington Center
Sun 05:08:35 PM 36.4022 -79.6514 216° Southwest 441 507 32,000  Level Washington Center
Sun 05:09:36 PM 36.2967 -79.7464 216° Southwest 441 507 32,000  Level Washington Center
Sun 05:11:15 PM 36.1303 -79.8947 216° Southwest 436 502 32,000  Level Atlanta Center
Sun 05:12:15 PM 36.0308 -79.9794 215° Southwest 436 502 32,000  Level Atlanta Center
Sun 05:13:15 PM 35.9261 -80.0281 201° Southwest 436 502 32,000  Level Atlanta Center
Sun 05:14:16 PM 35.8111 -80.0875 203° Southwest 442 509 32,000  Level Atlanta Center
Sun 05:15:15 PM 35.6961 -80.1469 203° Southwest 447 514 32,000  Level Atlanta Center
Sun 05:16:15 PM 35.5689 -80.2142 203° Southwest 447 514 32,000  Level Atlanta Center
Sun 05:17:15 PM 35.4497 -80.2733 202° Southwest 447 514 32,000  Level Atlanta Center
Sun 05:18:15 PM 35.3347 -80.3319 203° Southwest 453 521 32,000  Level Atlanta Center
Sun 05:19:15 PM 35.2175 -80.3906 202° Southwest 453 521 32,000  Level Atlanta Center
Sun 05:20:15 PM 35.1025 -80.4492 203° Southwest 453 521 32,000  Level Atlanta Center
Sun 05:22:09 PM 34.8911 -80.5514 202° Southwest 452 520 32,000  Level Jacksonville Center
Sun 05:23:09 PM 34.7714 -80.6128 203° Southwest 452 520 32,000  Level Jacksonville Center
Sun 05:24:09 PM 34.6575 -80.6689 202° Southwest 446 513 32,000  Level Jacksonville Center
Sun 05:25:09 PM 34.5439 -80.7222 201° Southwest 466 536 32,000  Level Jacksonville Center
Sun 05:26:09 PM 34.4281 -80.7831 203° Southwest 472 543 32,000  Level Jacksonville Center
Sun 05:27:09 PM 34.3122 -80.8411 202° Southwest 456 525 32,000  Level Jacksonville Center
Sun 05:28:09 PM 34.1878 -80.8942 199° South 449 517 32,000  Level Jacksonville Center
Sun 05:29:09 PM 34.0697 -80.9522 202° Southwest 449 517 32,000  Level Jacksonville Center
Sun 05:30:09 PM 33.9494 -81.0050 200° South 449 517 32,000  Level Jacksonville Center
Sun 05:31:09 PM 33.8439 -81.0522 200° South 449 517 32,000  Level Jacksonville Center
Sun 05:32:09 PM 33.7175 -81.1147 202° Southwest 449 517 32,000  Level Jacksonville Center
Sun 05:33:09 PM 33.6117 -81.1642 201° Southwest 449 517 32,000  Level Jacksonville Center
Sun 05:34:09 PM 33.4956 -81.2164 201° Southwest 449 517 32,000  Level Jacksonville Center
Sun 05:35:09 PM 33.3794 -81.2733 202° Southwest 449 517 32,000  Level Jacksonville Center
Sun 05:36:09 PM 33.2611 -81.3250 200° South 449 517 32,000  Level Jacksonville Center
Sun 05:37:09 PM 33.1428 -81.3817 202° Southwest 454 522 32,000  Level Jacksonville Center
Sun 05:38:09 PM 33.0225 -81.4383 202° Southwest 454 522 32,000  Level Jacksonville Center
Sun 05:39:09 PM 32.9019 -81.4872 199° South 454 522 32,000  Level Jacksonville Center
Sun 05:40:09 PM 32.7750 -81.5239 194° South 460 529 32,000  Level Jacksonville Center
Sun 05:41:09 PM 32.6458 -81.5603 193° South 471 542 32,000  Level Jacksonville Center
Sun 05:42:09 PM 32.5044 -81.5969 192° South 471 542 32,000  Level Jacksonville Center
Sun 05:43:09 PM 32.3775 -81.6331 194° South 471 542 32,000  Level Jacksonville Center
Sun 05:44:09 PM 32.2483 -81.6692 193° South 471 542 32,000  Level Jacksonville Center
Sun 05:45:09 PM 32.1192 -81.7053 193° South 471 542 32,000  Level Jacksonville Center
Sun 05:46:09 PM 32.0067 -81.7361 193° South 471 542 32,000  Level Jacksonville Center
Sun 05:47:09 PM 31.8650 -81.7747 193° South 476 548 32,000  Level Jacksonville Center
Sun 05:48:09 PM 31.7506 -81.8031 192° South 470 541 32,000  Level Jacksonville Center
Sun 05:49:09 PM 31.6108 -81.8386 192° South 470 541 32,000  Level Jacksonville Center
Sun 05:50:09 PM 31.4839 -81.8742 193° South 475 547 32,000  Level Jacksonville Center
Sun 05:51:09 PM 31.3525 -81.9072 192° South 470 541 32,000  Level Jacksonville Center
Sun 05:52:09 PM 31.2275 -81.9428 194° South 470 541 32,000  Level Jacksonville Center
Sun 05:53:09 PM 31.0983 -81.9731 191° South 470 541 32,000  Level Jacksonville Center
Sun 05:54:09 PM 30.9711 -82.0058 192° South 470 541 32,000  Level Jacksonville Center
Sun 05:55:09 PM 30.8442 -82.0408 193° South 470 541 32,000 -50 Level Jacksonville Center
Sun 05:56:09 PM 30.7169 -82.0733 192° South 470 541 31,900  Descending Jacksonville Center
Sun 05:57:09 PM 30.5878 -82.1058 192° South 470 541 32,000 50 Climbing Jacksonville Center
Sun 05:58:09 PM 30.4625 -82.1311 190° South 470 541 32,000  Level Jacksonville Center
Sun 05:59:09 PM 30.3375 -82.1658 193° South 470 541 32,000  Level Jacksonville Center
Sun 06:00:09 PM 30.2125 -82.1978 192° South 470 541 32,000  Level Jacksonville Center
Sun 06:01:09 PM 30.0853 -82.2300 192° South 470 541 32,000  Level Jacksonville Center
Sun 06:02:09 PM 29.9644 -82.2644 194° South 465 535 32,000  Level Jacksonville Center
Sun 06:03:09 PM 29.8372 -82.2989 193° South 465 535 32,000 -750 Level Jacksonville Center
Sun 06:04:09 PM 29.7100 -82.3258 190° South 465 535 30,500 -2,650 Descending Jacksonville Center
Sun 06:05:09 PM 29.5828 -82.3528 190° South 465 535 26,700 -3,200 Descending Jacksonville Center
Sun 06:06:09 PM 29.4469 -82.3417 176° South 477 549 24,100 -2,300 Descending Jacksonville Center
Sun 06:07:09 PM 29.3153 -82.3281 175° South 477 549 22,100 -1,050 Descending Jacksonville Center
Sun 06:08:09 PM 29.1839 -82.3097 173° South 477 549 22,000 -700 Descending Jacksonville Center
Sun 06:09:09 PM 29.0583 -82.2964 175° South 477 549 20,700 -2,100 Descending Jacksonville Center
Sun 06:10:09 PM 28.9500 -82.2828 174° South 454 522 17,800 -2,724 Descending Jacksonville Center
Sun 06:11:52 PM 28.7333 -82.2667 176° South 419 482 13,300 -2,282 Descending Tampa TRACON
Sun 06:12:52 PM 28.6167 -82.2500 173° South 404 465 11,600 -1,150 Descending Tampa TRACON
Sun 06:13:52 PM 28.5167 -82.2500 180° South 387 445 11,000 -286 Descending Tampa TRACON
Sun 06:14:58 PM 28.4000 -82.2833 194° South 388 447 11,000 -95 Level Tampa TRACON
Sun 06:15:58 PM 28.3000 -82.3167 196° South 387 445 10,800 -429 Descending Tampa TRACON
Sun 06:17:04 PM 28.2000 -82.3500 196° South 313 360 10,100 -900 Descending Tampa TRACON
Sun 06:17:58 PM 28.1167 -82.3667 190° South 286 329 9,000 -1,333 Descending Tampa TRACON
Sun 06:18:52 PM 28.0500 -82.4000 204° Southwest 276 318 7,700 -1,444 Descending Tampa TRACON
Sun 06:19:46 PM 28.0000 -82.4167 196° South 264 304 6,400 -2,100 Descending Tampa TRACON
Sun 06:20:52 PM 27.9167 -82.4500 199° South 250 288 3,500 -2,150 Descending Tampa TRACON
Sun 06:21:46 PM 27.8667 -82.4667 196° South 253 291 2,100 -895 Descending Tampa TRACON
Sun 06:22:46 PM 27.8500 -82.5167 249° West 209 241 1,800 -350 Descending Tampa TRACON
Sun 06:23:46 PM 27.8833 -82.5500 319° Northwest 176 203 1,400 -571 Descending Tampa TRACON
Sun 06:24:52 PM 27.9333 -82.5500 360° North 135 155 600 -727 Descending Tampa TRACON

Login

Don't have an account? Register now (free) for customized features, flight alerts, and more!